sensor_id;sensor_type;location;lat;lon;timestamp;P1;durP1;ratioP1;P2;durP2;ratioP2
7247;SDS011;3665;51.034;13.642;2023-05-16T00:04:01;10.70;;;9.10;;
7247;SDS011;3665;51.034;13.642;2023-05-16T00:08:51;11.47;;;9.63;;
7247;SDS011;3665;51.034;13.642;2023-05-16T00:13:38;12.43;;;10.47;;
7247;SDS011;3665;51.034;13.642;2023-05-16T00:18:26;10.67;;;9.77;;
7247;SDS011;3665;51.034;13.642;2023-05-16T00:23:16;10.93;;;9.93;;
7247;SDS011;3665;51.034;13.642;2023-05-16T00:28:02;10.77;;;9.83;;
7247;SDS011;3665;51.034;13.642;2023-05-16T00:32:49;10.97;;;9.87;;
7247;SDS011;3665;51.034;13.642;2023-05-16T00:37:37;13.40;;;10.40;;
7247;SDS011;3665;51.034;13.642;2023-05-16T00:42:24;11.37;;;10.30;;
7247;SDS011;3665;51.034;13.642;2023-05-16T00:47:13;12.07;;;10.87;;
7247;SDS011;3665;51.034;13.642;2023-05-16T00:52:03;10.97;;;9.87;;
7247;SDS011;3665;51.034;13.642;2023-05-16T00:56:52;11.10;;;10.10;;
7247;SDS011;3665;51.034;13.642;2023-05-16T01:01:36;11.83;;;10.63;;
7247;SDS011;3665;51.034;13.642;2023-05-16T01:06:27;11.93;;;10.73;;
7247;SDS011;3665;51.034;13.642;2023-05-16T01:11:15;12.40;;;11.20;;
7247;SDS011;3665;51.034;13.642;2023-05-16T01:16:20;12.00;;;10.87;;
7247;SDS011;3665;51.034;13.642;2023-05-16T01:26:26;11.70;;;10.70;;
7247;SDS011;3665;51.034;13.642;2023-05-16T01:31:12;12.57;;;11.30;;
7247;SDS011;3665;51.034;13.642;2023-05-16T01:36:02;12.90;;;11.70;;
7247;SDS011;3665;51.034;13.642;2023-05-16T01:41:07;11.60;;;10.57;;
7247;SDS011;3665;51.034;13.642;2023-05-16T01:51:14;12.57;;;11.37;;
7247;SDS011;3665;51.034;13.642;2023-05-16T01:56:01;13.13;;;11.87;;
7247;SDS011;3665;51.034;13.642;2023-05-16T02:00:51;12.43;;;11.23;;
7247;SDS011;3665;51.034;13.642;2023-05-16T02:05:39;12.63;;;11.43;;
7247;SDS011;3665;51.034;13.642;2023-05-16T02:10:26;12.73;;;11.47;;
7247;SDS011;3665;51.034;13.642;2023-05-16T02:15:16;14.13;;;12.73;;
7247;SDS011;3665;51.034;13.642;2023-05-16T02:20:01;15.03;;;13.37;;
7247;SDS011;3665;51.034;13.642;2023-05-16T02:24:50;15.10;;;13.50;;
7247;SDS011;3665;51.034;13.642;2023-05-16T02:29:35;14.63;;;13.13;;
7247;SDS011;3665;51.034;13.642;2023-05-16T02:34:26;14.83;;;13.33;;
7247;SDS011;3665;51.034;13.642;2023-05-16T02:39:16;16.20;;;14.50;;
7247;SDS011;3665;51.034;13.642;2023-05-16T02:44:01;16.43;;;14.73;;
7247;SDS011;3665;51.034;13.642;2023-05-16T02:48:50;16.40;;;15.00;;
7247;SDS011;3665;51.034;13.642;2023-05-16T02:53:37;15.97;;;14.30;;
7247;SDS011;3665;51.034;13.642;2023-05-16T02:58:26;16.83;;;15.13;;
7247;SDS011;3665;51.034;13.642;2023-05-16T03:03:16;16.27;;;14.67;;
7247;SDS011;3665;51.034;13.642;2023-05-16T03:08:02;16.40;;;14.73;;
7247;SDS011;3665;51.034;13.642;2023-05-16T03:12:51;15.27;;;13.80;;
7247;SDS011;3665;51.034;13.642;2023-05-16T03:17:38;18.07;;;14.97;;
7247;SDS011;3665;51.034;13.642;2023-05-16T03:22:25;16.40;;;14.83;;
7247;SDS011;3665;51.034;13.642;2023-05-16T03:27:14;16.27;;;14.47;;
7247;SDS011;3665;51.034;13.642;2023-05-16T03:32:01;17.40;;;15.77;;
7247;SDS011;3665;51.034;13.642;2023-05-16T03:36:49;16.23;;;14.60;;
7247;SDS011;3665;51.034;13.642;2023-05-16T03:41:37;15.13;;;13.73;;
7247;SDS011;3665;51.034;13.642;2023-05-16T03:46:27;15.70;;;14.03;;
7247;SDS011;3665;51.034;13.642;2023-05-16T03:51:14;16.03;;;14.37;;
7247;SDS011;3665;51.034;13.642;2023-05-16T03:56:00;15.87;;;14.30;;
7247;SDS011;3665;51.034;13.642;2023-05-16T04:00:50;15.20;;;13.67;;
7247;SDS011;3665;51.034;13.642;2023-05-16T04:05:37;15.37;;;13.83;;
7247;SDS011;3665;51.034;13.642;2023-05-16T04:10:27;16.17;;;14.50;;
7247;SDS011;3665;51.034;13.642;2023-05-16T04:15:11;15.70;;;14.00;;
7247;SDS011;3665;51.034;13.642;2023-05-16T04:20:09;19.30;;;14.43;;
7247;SDS011;3665;51.034;13.642;2023-05-16T04:25:07;15.97;;;14.37;;
7247;SDS011;3665;51.034;13.642;2023-05-16T04:29:53;15.20;;;13.63;;
7247;SDS011;3665;51.034;13.642;2023-05-16T04:34:36;14.17;;;12.53;;
7247;SDS011;3665;51.034;13.642;2023-05-16T04:39:33;14.67;;;13.17;;
7247;SDS011;3665;51.034;13.642;2023-05-16T04:44:16;15.70;;;14.20;;
7247;SDS011;3665;51.034;13.642;2023-05-16T04:49:00;15.03;;;13.43;;
7247;SDS011;3665;51.034;13.642;2023-05-16T04:53:51;15.13;;;13.73;;
7247;SDS011;3665;51.034;13.642;2023-05-16T04:58:44;16.30;;;14.60;;
7247;SDS011;3665;51.034;13.642;2023-05-16T05:03:30;15.57;;;14.00;;
7247;SDS011;3665;51.034;13.642;2023-05-16T05:08:19;16.30;;;14.40;;
7247;SDS011;3665;51.034;13.642;2023-05-16T05:13:04;16.40;;;14.47;;
7247;SDS011;3665;51.034;13.642;2023-05-16T05:17:53;15.87;;;14.27;;
7247;SDS011;3665;51.034;13.642;2023-05-16T05:22:43;15.00;;;13.40;;
7247;SDS011;3665;51.034;13.642;2023-05-16T05:27:31;16.70;;;15.03;;
7247;SDS011;3665;51.034;13.642;2023-05-16T05:32:18;17.10;;;15.27;;
7247;SDS011;3665;51.034;13.642;2023-05-16T05:37:09;16.90;;;15.23;;
7247;SDS011;3665;51.034;13.642;2023-05-16T05:41:53;19.13;;;17.23;;
7247;SDS011;3665;51.034;13.642;2023-05-16T05:46:42;18.60;;;16.77;;
7247;SDS011;3665;51.034;13.642;2023-05-16T05:51:29;20.43;;;17.77;;
7247;SDS011;3665;51.034;13.642;2023-05-16T05:56:20;19.23;;;17.00;;
7247;SDS011;3665;51.034;13.642;2023-05-16T06:01:05;19.73;;;17.83;;
7247;SDS011;3665;51.034;13.642;2023-05-16T06:05:54;20.70;;;18.73;;
7247;SDS011;3665;51.034;13.642;2023-05-16T06:10:44;23.50;;;20.90;;
7247;SDS011;3665;51.034;13.642;2023-05-16T06:15:30;24.37;;;21.27;;
7247;SDS011;3665;51.034;13.642;2023-05-16T06:20:17;24.17;;;21.50;;
7247;SDS011;3665;51.034;13.642;2023-05-16T06:25:07;26.67;;;23.87;;
7247;SDS011;3665;51.034;13.642;2023-05-16T06:29:53;26.67;;;23.47;;
7247;SDS011;3665;51.034;13.642;2023-05-16T06:34:45;29.13;;;25.87;;
7247;SDS011;3665;51.034;13.642;2023-05-16T06:39:31;31.83;;;26.30;;
7247;SDS011;3665;51.034;13.642;2023-05-16T06:44:18;33.87;;;28.33;;
7247;SDS011;3665;51.034;13.642;2023-05-16T06:49:06;33.20;;;26.77;;
7247;SDS011;3665;51.034;13.642;2023-05-16T06:53:54;30.23;;;24.87;;
7247;SDS011;3665;51.034;13.642;2023-05-16T06:58:41;25.07;;;22.33;;
7247;SDS011;3665;51.034;13.642;2023-05-16T07:03:29;21.67;;;19.33;;
7247;SDS011;3665;51.034;13.642;2023-05-16T07:08:22;25.97;;;21.97;;
7247;SDS011;3665;51.034;13.642;2023-05-16T07:13:08;21.93;;;19.47;;
7247;SDS011;3665;51.034;13.642;2023-05-16T07:17:54;18.60;;;16.20;;
7247;SDS011;3665;51.034;13.642;2023-05-16T07:22:44;18.13;;;15.00;;
7247;SDS011;3665;51.034;13.642;2023-05-16T07:27:29;17.17;;;13.83;;
7247;SDS011;3665;51.034;13.642;2023-05-16T07:37:31;14.53;;;13.03;;
7247;SDS011;3665;51.034;13.642;2023-05-16T07:42:41;14.33;;;11.93;;
7247;SDS011;3665;51.034;13.642;2023-05-16T07:47:31;13.57;;;12.23;;
7247;SDS011;3665;51.034;13.642;2023-05-16T07:52:21;13.33;;;12.13;;
7247;SDS011;3665;51.034;13.642;2023-05-16T07:57:05;13.27;;;11.97;;
7247;SDS011;3665;51.034;13.642;2023-05-16T08:01:54;14.40;;;11.67;;
7247;SDS011;3665;51.034;13.642;2023-05-16T08:06:42;13.20;;;10.90;;
7247;SDS011;3665;51.034;13.642;2023-05-16T08:11:30;11.53;;;10.43;;
7247;SDS011;3665;51.034;13.642;2023-05-16T08:16:20;11.57;;;9.70;;
7247;SDS011;3665;51.034;13.642;2023-05-16T08:21:06;14.03;;;9.50;;
7247;SDS011;3665;51.034;13.642;2023-05-16T08:25:53;11.43;;;9.77;;
7247;SDS011;3665;51.034;13.642;2023-05-16T08:30:46;11.83;;;9.57;;
7247;SDS011;3665;51.034;13.642;2023-05-16T08:35:29;11.47;;;9.17;;
7247;SDS011;3665;51.034;13.642;2023-05-16T08:40:17;9.77;;;8.60;;
7247;SDS011;3665;51.034;13.642;2023-05-16T08:45:04;10.43;;;8.77;;
7247;SDS011;3665;51.034;13.642;2023-05-16T08:55:14;9.33;;;8.33;;
7247;SDS011;3665;51.034;13.642;2023-05-16T09:00:06;10.30;;;9.30;;
7247;SDS011;3665;51.034;13.642;2023-05-16T09:04:58;9.17;;;8.17;;
7247;SDS011;3665;51.034;13.642;2023-05-16T09:09:54;9.67;;;8.50;;
7247;SDS011;3665;51.034;13.642;2023-05-16T09:14:42;10.60;;;9.50;;
7247;SDS011;3665;51.034;13.642;2023-05-16T09:19:31;9.60;;;8.43;;
7247;SDS011;3665;51.034;13.642;2023-05-16T09:24:19;9.63;;;8.73;;
7247;SDS011;3665;51.034;13.642;2023-05-16T09:29:11;10.40;;;9.33;;
7247;SDS011;3665;51.034;13.642;2023-05-16T09:33:56;10.13;;;9.13;;
7247;SDS011;3665;51.034;13.642;2023-05-16T09:38:42;11.10;;;9.33;;
7247;SDS011;3665;51.034;13.642;2023-05-16T09:43:28;10.30;;;9.37;;
7247;SDS011;3665;51.034;13.642;2023-05-16T09:48:19;9.50;;;8.10;;
7247;SDS011;3665;51.034;13.642;2023-05-16T09:53:06;10.10;;;9.10;;
7247;SDS011;3665;51.034;13.642;2023-05-16T09:57:53;8.83;;;8.03;;
7247;SDS011;3665;51.034;13.642;2023-05-16T10:02:38;10.40;;;8.10;;
7247;SDS011;3665;51.034;13.642;2023-05-16T10:07:30;11.30;;;8.40;;
7247;SDS011;3665;51.034;13.642;2023-05-16T10:12:26;8.47;;;7.63;;
7247;SDS011;3665;51.034;13.642;2023-05-16T10:17:21;7.77;;;7.00;;
7247;SDS011;3665;51.034;13.642;2023-05-16T10:22:06;7.80;;;7.00;;
7247;SDS011;3665;51.034;13.642;2023-05-16T10:26:57;8.97;;;7.50;;
7247;SDS011;3665;51.034;13.642;2023-05-16T10:31:45;10.07;;;8.03;;
7247;SDS011;3665;51.034;13.642;2023-05-16T10:36:36;8.53;;;7.70;;
7247;SDS011;3665;51.034;13.642;2023-05-16T10:41:21;7.83;;;7.03;;
7247;SDS011;3665;51.034;13.642;2023-05-16T10:46:10;8.73;;;7.73;;
7247;SDS011;3665;51.034;13.642;2023-05-16T11:01:41;7.97;;;7.17;;
7247;SDS011;3665;51.034;13.642;2023-05-16T11:06:25;6.83;;;6.13;;
7247;SDS011;3665;51.034;13.642;2023-05-16T11:16:37;6.70;;;6.10;;
7247;SDS011;3665;51.034;13.642;2023-05-16T11:21:23;6.70;;;6.03;;
7247;SDS011;3665;51.034;13.642;2023-05-16T11:26:56;6.47;;;5.87;;
7247;SDS011;3665;51.034;13.642;2023-05-16T11:31:44;6.00;;;5.40;;
7247;SDS011;3665;51.034;13.642;2023-05-16T11:36:33;5.50;;;5.03;;
7247;SDS011;3665;51.034;13.642;2023-05-16T11:41:21;5.20;;;4.70;;
7247;SDS011;3665;51.034;13.642;2023-05-16T11:51:15;5.10;;;4.10;;
7247;SDS011;3665;51.034;13.642;2023-05-16T11:56:01;4.40;;;4.03;;
7247;SDS011;3665;51.034;13.642;2023-05-16T12:00:49;4.10;;;3.70;;
7247;SDS011;3665;51.034;13.642;2023-05-16T12:05:41;4.63;;;4.10;;
7247;SDS011;3665;51.034;13.642;2023-05-16T12:11:05;4.83;;;3.87;;
7247;SDS011;3665;51.034;13.642;2023-05-16T12:15:55;5.13;;;4.50;;
7247;SDS011;3665;51.034;13.642;2023-05-16T12:20:50;5.20;;;4.53;;
7247;SDS011;3665;51.034;13.642;2023-05-16T12:25:43;4.93;;;4.00;;
7247;SDS011;3665;51.034;13.642;2023-05-16T12:30:35;4.30;;;3.90;;
7247;SDS011;3665;51.034;13.642;2023-05-16T12:35:29;4.43;;;4.03;;
7247;SDS011;3665;51.034;13.642;2023-05-16T12:40:17;6.33;;;4.17;;
7247;SDS011;3665;51.034;13.642;2023-05-16T12:45:12;3.80;;;3.30;;
7247;SDS011;3665;51.034;13.642;2023-05-16T12:50:09;3.73;;;3.43;;
7247;SDS011;3665;51.034;13.642;2023-05-16T12:54:57;4.70;;;3.93;;
7247;SDS011;3665;51.034;13.642;2023-05-16T12:59:45;5.50;;;4.10;;
7247;SDS011;3665;51.034;13.642;2023-05-16T13:04:28;6.27;;;3.60;;
7247;SDS011;3665;51.034;13.642;2023-05-16T13:09:23;5.13;;;4.23;;
7247;SDS011;3665;51.034;13.642;2023-05-16T13:14:26;4.93;;;3.40;;
7247;SDS011;3665;51.034;13.642;2023-05-16T13:19:15;4.67;;;4.17;;
7247;SDS011;3665;51.034;13.642;2023-05-16T13:24:01;4.30;;;3.90;;
7247;SDS011;3665;51.034;13.642;2023-05-16T13:28:50;4.23;;;3.83;;
7247;SDS011;3665;51.034;13.642;2023-05-16T13:33:37;4.40;;;3.80;;
7247;SDS011;3665;51.034;13.642;2023-05-16T13:38:26;5.53;;;3.53;;
7247;SDS011;3665;51.034;13.642;2023-05-16T13:43:14;4.40;;;3.60;;
7247;SDS011;3665;51.034;13.642;2023-05-16T13:48:01;4.07;;;2.70;;
7247;SDS011;3665;51.034;13.642;2023-05-16T13:52:49;3.80;;;3.40;;
7247;SDS011;3665;51.034;13.642;2023-05-16T13:57:38;3.93;;;3.13;;
7247;SDS011;3665;51.034;13.642;2023-05-16T14:02:26;3.77;;;3.33;;
7247;SDS011;3665;51.034;13.642;2023-05-16T14:07:13;3.20;;;2.90;;
7247;SDS011;3665;51.034;13.642;2023-05-16T14:11:57;5.30;;;3.03;;
7247;SDS011;3665;51.034;13.642;2023-05-16T14:16:46;3.73;;;2.80;;
7247;SDS011;3665;51.034;13.642;2023-05-16T14:21:41;5.87;;;3.10;;
7247;SDS011;3665;51.034;13.642;2023-05-16T14:26:26;5.63;;;3.07;;
7247;SDS011;3665;51.034;13.642;2023-05-16T14:31:16;3.87;;;2.80;;
7247;SDS011;3665;51.034;13.642;2023-05-16T14:35:59;4.73;;;3.00;;
7247;SDS011;3665;51.034;13.642;2023-05-16T14:40:49;4.73;;;2.60;;
7247;SDS011;3665;51.034;13.642;2023-05-16T14:45:41;5.20;;;2.97;;
7247;SDS011;3665;51.034;13.642;2023-05-16T14:50:25;7.27;;;3.10;;
7247;SDS011;3665;51.034;13.642;2023-05-16T14:55:13;5.13;;;3.10;;
7247;SDS011;3665;51.034;13.642;2023-05-16T15:00:04;4.57;;;2.83;;
7247;SDS011;3665;51.034;13.642;2023-05-16T15:04:50;4.90;;;3.07;;
7247;SDS011;3665;51.034;13.642;2023-05-16T15:09:35;7.00;;;2.90;;
7247;SDS011;3665;51.034;13.642;2023-05-16T15:14:34;4.23;;;3.07;;
7247;SDS011;3665;51.034;13.642;2023-05-16T15:19:22;4.47;;;2.70;;
7247;SDS011;3665;51.034;13.642;2023-05-16T15:24:15;5.70;;;3.27;;
7247;SDS011;3665;51.034;13.642;2023-05-16T15:29:01;5.93;;;2.53;;
7247;SDS011;3665;51.034;13.642;2023-05-16T15:33:55;7.17;;;2.90;;
7247;SDS011;3665;51.034;13.642;2023-05-16T15:38:38;6.30;;;2.10;;
7247;SDS011;3665;51.034;13.642;2023-05-16T15:43:28;7.90;;;2.60;;
7247;SDS011;3665;51.034;13.642;2023-05-16T15:48:18;4.97;;;2.53;;
7247;SDS011;3665;51.034;13.642;2023-05-16T15:53:04;5.07;;;2.30;;
7247;SDS011;3665;51.034;13.642;2023-05-16T15:57:54;6.33;;;2.33;;
7247;SDS011;3665;51.034;13.642;2023-05-16T16:02:43;5.53;;;2.90;;
7247;SDS011;3665;51.034;13.642;2023-05-16T16:07:27;3.53;;;1.73;;
7247;SDS011;3665;51.034;13.642;2023-05-16T16:12:18;7.03;;;2.20;;
7247;SDS011;3665;51.034;13.642;2023-05-16T16:17:07;6.73;;;1.97;;
7247;SDS011;3665;51.034;13.642;2023-05-16T16:21:56;4.73;;;2.13;;
7247;SDS011;3665;51.034;13.642;2023-05-16T16:26:40;4.07;;;1.53;;
7247;SDS011;3665;51.034;13.642;2023-05-16T16:31:26;3.90;;;2.13;;
7247;SDS011;3665;51.034;13.642;2023-05-16T16:36:26;10.40;;;2.10;;
7247;SDS011;3665;51.034;13.642;2023-05-16T16:41:22;4.90;;;1.80;;
7247;SDS011;3665;51.034;13.642;2023-05-16T16:46:09;6.97;;;2.13;;
7247;SDS011;3665;51.034;13.642;2023-05-16T16:51:01;6.60;;;2.00;;
7247;SDS011;3665;51.034;13.642;2023-05-16T16:55:45;5.53;;;1.83;;
7247;SDS011;3665;51.034;13.642;2023-05-16T17:00:38;8.13;;;2.20;;
7247;SDS011;3665;51.034;13.642;2023-05-16T17:05:21;3.70;;;1.73;;
7247;SDS011;3665;51.034;13.642;2023-05-16T17:10:08;5.27;;;1.70;;
7247;SDS011;3665;51.034;13.642;2023-05-16T17:14:56;5.07;;;1.80;;
7247;SDS011;3665;51.034;13.642;2023-05-16T17:19:42;6.90;;;1.77;;
7247;SDS011;3665;51.034;13.642;2023-05-16T17:24:34;6.47;;;1.70;;
7247;SDS011;3665;51.034;13.642;2023-05-16T17:29:19;6.13;;;1.90;;
7247;SDS011;3665;51.034;13.642;2023-05-16T17:34:06;2.97;;;1.40;;
7247;SDS011;3665;51.034;13.642;2023-05-16T17:38:57;3.47;;;1.77;;
7247;SDS011;3665;51.034;13.642;2023-05-16T17:43:46;6.13;;;2.10;;
7247;SDS011;3665;51.034;13.642;2023-05-16T17:48:33;8.27;;;2.33;;
7247;SDS011;3665;51.034;13.642;2023-05-16T17:53:21;4.93;;;2.00;;
7247;SDS011;3665;51.034;13.642;2023-05-16T17:58:08;4.50;;;1.97;;
7247;SDS011;3665;51.034;13.642;2023-05-16T18:03:00;6.70;;;1.63;;
7247;SDS011;3665;51.034;13.642;2023-05-16T18:07:47;6.90;;;1.80;;
7247;SDS011;3665;51.034;13.642;2023-05-16T18:12:34;4.23;;;1.77;;
7247;SDS011;3665;51.034;13.642;2023-05-16T18:22:26;5.63;;;2.00;;
7247;SDS011;3665;51.034;13.642;2023-05-16T18:27:16;5.90;;;2.20;;
7247;SDS011;3665;51.034;13.642;2023-05-16T18:31:59;6.20;;;1.60;;
7247;SDS011;3665;51.034;13.642;2023-05-16T18:36:50;5.77;;;1.50;;
7247;SDS011;3665;51.034;13.642;2023-05-16T18:41:37;5.40;;;1.60;;
7247;SDS011;3665;51.034;13.642;2023-05-16T18:46:27;5.40;;;1.30;;
7247;SDS011;3665;51.034;13.642;2023-05-16T18:51:16;4.83;;;1.60;;
7247;SDS011;3665;51.034;13.642;2023-05-16T18:56:04;6.03;;;1.80;;
7247;SDS011;3665;51.034;13.642;2023-05-16T19:00:50;7.40;;;2.07;;
7247;SDS011;3665;51.034;13.642;2023-05-16T19:05:34;6.73;;;2.03;;
7247;SDS011;3665;51.034;13.642;2023-05-16T19:10:21;3.07;;;1.70;;
7247;SDS011;3665;51.034;13.642;2023-05-16T19:15:12;4.80;;;2.10;;
7247;SDS011;3665;51.034;13.642;2023-05-16T19:20:00;5.57;;;2.17;;
7247;SDS011;3665;51.034;13.642;2023-05-16T19:24:49;4.17;;;1.87;;
7247;SDS011;3665;51.034;13.642;2023-05-16T19:29:38;3.83;;;1.70;;
7247;SDS011;3665;51.034;13.642;2023-05-16T19:34:26;6.43;;;2.00;;
7247;SDS011;3665;51.034;13.642;2023-05-16T19:39:15;3.73;;;1.70;;
7247;SDS011;3665;51.034;13.642;2023-05-16T19:44:04;5.57;;;1.87;;
7247;SDS011;3665;51.034;13.642;2023-05-16T19:48:50;3.77;;;1.70;;
7247;SDS011;3665;51.034;13.642;2023-05-16T19:53:38;5.80;;;1.50;;
7247;SDS011;3665;51.034;13.642;2023-05-16T19:58:26;5.93;;;1.53;;
7247;SDS011;3665;51.034;13.642;2023-05-16T20:03:16;3.43;;;1.30;;
7247;SDS011;3665;51.034;13.642;2023-05-16T20:08:01;5.17;;;1.67;;
7247;SDS011;3665;51.034;13.642;2023-05-16T20:17:53;4.23;;;1.37;;
7247;SDS011;3665;51.034;13.642;2023-05-16T20:22:37;3.33;;;1.40;;
7247;SDS011;3665;51.034;13.642;2023-05-16T20:27:39;3.13;;;1.20;;
7247;SDS011;3665;51.034;13.642;2023-05-16T20:32:34;3.60;;;1.17;;
7247;SDS011;3665;51.034;13.642;2023-05-16T20:37:23;4.23;;;1.50;;
7247;SDS011;3665;51.034;13.642;2023-05-16T20:42:11;3.43;;;1.23;;
7247;SDS011;3665;51.034;13.642;2023-05-16T20:46:57;2.97;;;1.03;;
7247;SDS011;3665;51.034;13.642;2023-05-16T20:51:42;4.30;;;1.40;;
7247;SDS011;3665;51.034;13.642;2023-05-16T20:56:33;4.37;;;1.17;;
7247;SDS011;3665;51.034;13.642;2023-05-16T21:01:23;2.97;;;0.97;;
7247;SDS011;3665;51.034;13.642;2023-05-16T21:06:09;5.03;;;1.63;;
7247;SDS011;3665;51.034;13.642;2023-05-16T21:10:59;4.27;;;1.17;;
7247;SDS011;3665;51.034;13.642;2023-05-16T21:15:46;2.27;;;1.33;;
7247;SDS011;3665;51.034;13.642;2023-05-16T21:20:34;2.40;;;1.20;;
7247;SDS011;3665;51.034;13.642;2023-05-16T21:25:24;2.33;;;0.90;;
7247;SDS011;3665;51.034;13.642;2023-05-16T21:35:14;2.50;;;1.10;;
7247;SDS011;3665;51.034;13.642;2023-05-16T21:39:58;2.83;;;1.30;;
7247;SDS011;3665;51.034;13.642;2023-05-16T21:45:10;4.03;;;1.10;;
7247;SDS011;3665;51.034;13.642;2023-05-16T21:50:11;1.17;;;1.00;;
7247;SDS011;3665;51.034;13.642;2023-05-16T21:54:57;3.70;;;1.00;;
7247;SDS011;3665;51.034;13.642;2023-05-16T21:59:45;1.57;;;0.90;;
7247;SDS011;3665;51.034;13.642;2023-05-16T22:04:34;1.83;;;1.30;;
7247;SDS011;3665;51.034;13.642;2023-05-16T22:09:22;2.23;;;0.97;;
7247;SDS011;3665;51.034;13.642;2023-05-16T22:14:09;2.60;;;1.10;;
7247;SDS011;3665;51.034;13.642;2023-05-16T22:18:55;2.63;;;1.33;;
7247;SDS011;3665;51.034;13.642;2023-05-16T22:23:43;1.70;;;1.00;;
7247;SDS011;3665;51.034;13.642;2023-05-16T22:28:35;2.27;;;1.20;;
7247;SDS011;3665;51.034;13.642;2023-05-16T22:33:22;2.10;;;0.90;;
7247;SDS011;3665;51.034;13.642;2023-05-16T22:38:12;3.43;;;1.53;;
7247;SDS011;3665;51.034;13.642;2023-05-16T22:42:57;2.30;;;1.27;;
7247;SDS011;3665;51.034;13.642;2023-05-16T22:47:50;1.90;;;1.30;;
7247;SDS011;3665;51.034;13.642;2023-05-16T22:52:33;2.50;;;1.10;;
7247;SDS011;3665;51.034;13.642;2023-05-16T22:57:21;2.60;;;1.10;;
7247;SDS011;3665;51.034;13.642;2023-05-16T23:02:05;5.97;;;1.63;;
7247;SDS011;3665;51.034;13.642;2023-05-16T23:06:58;1.90;;;0.90;;
7247;SDS011;3665;51.034;13.642;2023-05-16T23:11:45;4.60;;;0.93;;
7247;SDS011;3665;51.034;13.642;2023-05-16T23:16:34;3.10;;;1.13;;
7247;SDS011;3665;51.034;13.642;2023-05-16T23:21:24;2.83;;;1.17;;
7247;SDS011;3665;51.034;13.642;2023-05-16T23:31:29;4.50;;;1.03;;
7247;SDS011;3665;51.034;13.642;2023-05-16T23:36:19;1.90;;;1.40;;
7247;SDS011;3665;51.034;13.642;2023-05-16T23:41:05;1.17;;;1.07;;
7247;SDS011;3665;51.034;13.642;2023-05-16T23:45:58;1.73;;;1.10;;
7247;SDS011;3665;51.034;13.642;2023-05-16T23:50:41;2.97;;;1.10;;
7247;SDS011;3665;51.034;13.642;2023-05-16T23:55:31;4.13;;;1.27;;
